createdAt,value
2019-05-09T00:00:00.000Z,99725.42
2019-05-09T00:02:33.703Z,99722.25
2019-05-09T00:05:05.383Z,99719.19
2019-05-09T00:07:36.076Z,99709.21
2019-05-09T00:10:08.350Z,99705.69
2019-05-09T00:12:39.063Z,99710.41
2019-05-09T00:15:09.950Z,99700.94
2019-05-09T00:17:40.663Z,99702.52
2019-05-09T00:20:19.249Z,99689.48
2019-05-09T00:22:49.969Z,99691.80
2019-05-09T00:25:20.631Z,99690.82
2019-05-09T00:27:51.196Z,99684.97
2019-05-09T00:30:23.385Z,99685.92
2019-05-09T00:32:54.020Z,99682.67
2019-05-09T00:35:26.417Z,99683.63
2019-05-09T00:38:01.341Z,99683.52
2019-05-09T00:40:34.026Z,99684.51
2019-05-09T00:43:04.242Z,99684.76
2019-05-09T00:45:36.910Z,99678.55
2019-05-09T00:48:07.956Z,99681.23
2019-05-09T00:50:38.843Z,99683.42
2019-05-09T00:53:09.579Z,99682.43
2019-05-09T00:55:40.137Z,99678.20
2019-05-09T00:58:10.786Z,99672.56
2019-05-09T01:00:43.779Z,99674.64
2019-05-09T01:03:14.310Z,99672.32
2019-05-09T01:05:47.452Z,99672.21
2019-05-09T01:08:18.993Z,99672.70
2019-05-09T01:10:52.908Z,99674.54
2019-05-09T01:13:23.216Z,99674.26
2019-05-09T01:15:55.308Z,99659.91
2019-05-09T01:18:25.928Z,99658.95
2019-05-09T01:20:57.997Z,99662.34
2019-05-09T01:23:28.758Z,99658.58
2019-05-09T01:25:59.395Z,99658.69
2019-05-09T01:28:29.968Z,99657.81
2019-05-09T01:31:00.530Z,99654.17
2019-05-09T01:33:39.156Z,99645.13
2019-05-09T01:36:09.692Z,99648.30
2019-05-09T01:38:40.640Z,99645.38
2019-05-09T01:41:26.258Z,99642.80
2019-05-09T01:43:44.260Z,99639.28
2019-05-09T01:46:15.341Z,99634.28
2019-05-09T01:48:47.351Z,99635.48
2019-05-09T01:51:18.081Z,99635.02
2019-05-09T01:53:50.674Z,99629.88
2019-05-09T01:56:23.626Z,99630.52
2019-05-09T01:58:54.481Z,99630.86
2019-05-09T02:01:25.167Z,99618.44
2019-05-09T02:03:55.919Z,99625.97
2019-05-09T02:06:26.923Z,99622.09
2019-05-09T02:08:57.782Z,99614.06
2019-05-09T02:11:40.139Z,99615.41
2019-05-09T02:14:01.213Z,99611.25
2019-05-09T02:16:39.465Z,99607.94
2019-05-09T02:19:13.643Z,99607.59
2019-05-09T02:21:44.211Z,99607.70
2019-05-09T02:24:15.138Z,99605.02
2019-05-09T02:26:45.847Z,99602.59
2019-05-09T02:29:16.413Z,99600.98
2019-05-09T02:31:46.973Z,99598.65
2019-05-09T02:34:17.517Z,99599.64
2019-05-09T02:36:49.554Z,99588.93
2019-05-09T02:39:20.612Z,99595.97
2019-05-09T02:42:07.694Z,99590.84
2019-05-09T02:44:23.719Z,99584.99
2019-05-09T02:46:59.164Z,99583.52
2019-05-09T02:49:29.971Z,99584.61
2019-05-09T02:52:00.731Z,99576.83
2019-05-09T02:54:31.281Z,99583.90
2019-05-09T02:57:01.841Z,99582.03
2019-05-09T02:59:38.655Z,99577.07
2019-05-09T03:02:22.715Z,99574.14
2019-05-09T03:04:53.553Z,99576.58
2019-05-09T03:07:28.763Z,99569.39
2019-05-09T03:09:58.527Z,99564.15
2019-05-09T03:12:35.232Z,99567.32
2019-05-09T03:15:01.565Z,99566.72
2019-05-09T03:17:32.118Z,99575.70
2019-05-09T03:20:03.937Z,99564.53
2019-05-09T03:22:34.590Z,99565.73
2019-05-09T03:25:08.957Z,99551.76
2019-05-09T03:27:41.467Z,99565.38
2019-05-09T03:30:20.681Z,99565.73
2019-05-09T03:32:49.289Z,99560.14
2019-05-09T03:35:20.026Z,99563.80
2019-05-09T03:38:07.834Z,99565.24
2019-05-09T03:40:40.340Z,99564.39
2019-05-09T03:43:10.541Z,99565.34
2019-05-09T03:45:48.422Z,99562.31
2019-05-09T03:48:28.369Z,99567.17
2019-05-09T03:50:59.872Z,99562.91
2019-05-09T03:53:30.589Z,99569.22
2019-05-09T03:56:02.951Z,99565.06
2019-05-09T03:58:33.729Z,99571.30
2019-05-09T04:01:04.774Z,99567.00
2019-05-09T04:03:37.698Z,99572.48
2019-05-09T04:06:08.391Z,99578.67
2019-05-09T04:08:39.278Z,99578.78
2019-05-09T04:11:10.386Z,99567.73
2019-05-09T04:13:54.737Z,99566.01
2019-05-09T04:16:27.539Z,99565.66
2019-05-09T04:18:58.262Z,99570.37
2019-05-09T04:21:29.088Z,99563.58
2019-05-09T04:23:59.738Z,99564.06
2019-05-09T04:26:35.334Z,99566.60
2019-05-09T04:29:07.956Z,99560.52
2019-05-09T04:31:38.488Z,99569.03
2019-05-09T04:34:09.831Z,99565.52
2019-05-09T04:36:40.586Z,99569.42
2019-05-09T04:39:20.927Z,99567.20
2019-05-09T04:41:45.681Z,99568.19
2019-05-09T04:44:21.351Z,99567.20
2019-05-09T04:46:54.030Z,99560.80
2019-05-09T04:49:22.730Z,99554.95
2019-05-09T04:51:53.288Z,99565.30
2019-05-09T04:54:23.976Z,99568.93
2019-05-09T04:56:57.471Z,99576.36
2019-05-09T04:59:28.472Z,99569.95
2019-05-09T05:02:03.757Z,99569.11
2019-05-09T05:04:34.387Z,99568.16
2019-05-09T05:07:07.479Z,99569.15
2019-05-09T05:09:38.087Z,99566.61
2019-05-09T05:12:09.353Z,99563.23
2019-05-09T05:14:40.035Z,99564.00
2019-05-09T05:17:11.460Z,99560.98
2019-05-09T05:19:42.412Z,99559.55
2019-05-09T05:22:18.243Z,99564.91
2019-05-09T05:24:59.503Z,99564.84
2019-05-09T05:27:29.862Z,99567.27
2019-05-09T05:30:00.768Z,99570.20
2019-05-09T05:32:49.110Z,99566.58
2019-05-09T05:35:30.484Z,99564.63
2019-05-09T05:38:01.091Z,99572.52
2019-05-09T05:40:33.503Z,99561.70
2019-05-09T05:43:04.171Z,99562.55
2019-05-09T05:45:37.543Z,99565.33
2019-05-09T05:48:12.734Z,99560.71
2019-05-09T05:50:44.692Z,99558.16
2019-05-09T05:53:15.356Z,99564.98
2019-05-09T05:55:48.587Z,99559.86
2019-05-09T05:58:18.271Z,99558.05
2019-05-09T06:00:48.966Z,99558.03
2019-05-09T06:03:19.795Z,99566.92
2019-05-09T06:05:51.728Z,99558.77
2019-05-09T06:08:22.532Z,99559.16
2019-05-09T06:10:54.327Z,99559.87
2019-05-09T06:13:27.428Z,99557.07
2019-05-09T06:15:58.623Z,99560.12
2019-05-09T06:18:29.594Z,99565.83
2019-05-09T06:21:00.948Z,99557.33
2019-05-09T06:23:31.553Z,99560.48
2019-05-09T06:26:02.235Z,99560.73
2019-05-09T06:28:32.988Z,99559.87
2019-05-09T06:31:04.221Z,99558.40
2019-05-09T06:33:35.134Z,99561.69
2019-05-09T06:36:08.052Z,99563.17
2019-05-09T06:38:38.509Z,99561.59
2019-05-09T06:41:12.071Z,99560.00
2019-05-09T06:43:43.223Z,99564.63
2019-05-09T06:46:18.114Z,99564.98
2019-05-09T06:48:49.313Z,99563.05
2019-05-09T06:51:21.330Z,99567.90
2019-05-09T06:53:52.164Z,99567.41
2019-05-09T06:56:23.353Z,99567.30
2019-05-09T06:58:54.997Z,99570.77
2019-05-09T07:01:28.545Z,99566.63
2019-05-09T07:04:04.766Z,99570.48
2019-05-09T07:06:55.546Z,99565.14
2019-05-09T07:09:33.841Z,99566.34
2019-05-09T07:12:04.624Z,99571.31
2019-05-09T07:14:41.351Z,99568.15
2019-05-09T07:17:08.850Z,99568.50
2019-05-09T07:19:43.458Z,99567.00
2019-05-09T07:22:18.496Z,99564.86
2019-05-09T07:25:05.008Z,99578.33
2019-05-09T07:27:30.834Z,99575.12
2019-05-09T07:30:19.883Z,99580.56
2019-05-09T07:32:54.963Z,99581.50
2019-05-09T07:35:27.838Z,99577.53
2019-05-09T07:37:58.692Z,99587.67
2019-05-09T07:40:30.618Z,99589.79
2019-05-09T07:43:01.858Z,99594.83
2019-05-09T07:45:32.414Z,99589.22
2019-05-09T07:48:03.107Z,99587.50
2019-05-09T07:50:33.692Z,99586.75
2019-05-09T07:53:04.465Z,99588.78
2019-05-09T07:55:34.988Z,99590.09
2019-05-09T07:58:08.106Z,99586.09
2019-05-09T08:00:38.751Z,99591.53
2019-05-09T08:03:13.094Z,99596.53
2019-05-09T08:05:41.979Z,99595.00
2019-05-09T08:08:18.534Z,99598.28
2019-05-09T08:10:49.501Z,99597.19
2019-05-09T08:13:21.408Z,99597.70
2019-05-09T08:15:52.563Z,99595.26
2019-05-09T08:18:24.926Z,99596.53
2019-05-09T08:20:57.763Z,99597.02
2019-05-09T08:23:29.200Z,99596.44
2019-05-09T08:26:04.628Z,99597.44
2019-05-09T08:28:34.842Z,99597.54
2019-05-09T08:31:08.315Z,99602.69
2019-05-09T08:33:40.547Z,99599.75
2019-05-09T08:36:11.504Z,99604.78
2019-05-09T08:38:42.520Z,99612.80
2019-05-09T08:41:14.335Z,99616.45
2019-05-09T08:43:48.399Z,99614.95
2019-05-09T08:46:19.202Z,99611.28
2019-05-09T08:48:50.982Z,99621.11
2019-05-09T08:51:23.236Z,99619.19
2019-05-09T08:53:53.812Z,99616.39
2019-05-09T08:56:24.355Z,99619.78
2019-05-09T08:58:59.349Z,99604.08
2019-05-09T09:01:45.908Z,99616.55
2019-05-09T09:04:00.399Z,99616.78
2019-05-09T09:06:31.118Z,99608.52
2019-05-09T09:09:01.943Z,99611.77
2019-05-09T09:11:34.110Z,99604.44
2019-05-09T09:14:04.829Z,99607.53
2019-05-09T09:16:37.769Z,99607.86
2019-05-09T09:19:08.913Z,99595.58
2019-05-09T09:21:39.586Z,99598.02
2019-05-09T09:24:10.470Z,99610.69
2019-05-09T09:26:41.291Z,99607.02
2019-05-09T09:29:12.035Z,99607.02
2019-05-09T09:31:43.431Z,99607.86
2019-05-09T09:34:14.273Z,99603.75
2019-05-09T09:36:44.898Z,99608.70
2019-05-09T09:39:15.508Z,99601.18
2019-05-09T09:41:48.168Z,99620.23
2019-05-09T09:44:22.005Z,99611.63
2019-05-09T09:46:52.143Z,99614.76
2019-05-09T09:49:22.686Z,99615.61
2019-05-09T09:51:53.499Z,99608.70
2019-05-09T09:54:24.349Z,99607.20
2019-05-09T09:56:54.904Z,99603.92
2019-05-09T09:59:32.975Z,99610.04
2019-05-09T10:02:10.009Z,99616.23
2019-05-09T10:04:37.689Z,99613.62
2019-05-09T10:07:09.007Z,99612.70
2019-05-09T10:09:40.719Z,99606.00
2019-05-09T10:12:11.474Z,99605.59
2019-05-09T10:14:44.847Z,99605.77
2019-05-09T10:17:33.407Z,99609.92
2019-05-09T10:20:07.602Z,99605.80
2019-05-09T10:22:46.319Z,99612.23
2019-05-09T10:25:10.643Z,99596.71
2019-05-09T10:27:41.340Z,99615.23
2019-05-09T10:30:11.917Z,99607.52
2019-05-09T10:32:42.804Z,99600.62
2019-05-09T10:35:17.724Z,99606.66
2019-05-09T10:37:48.635Z,99599.48
2019-05-09T10:40:23.064Z,99605.77
2019-05-09T10:43:10.598Z,99609.44
2019-05-09T10:45:43.033Z,99608.00
2019-05-09T10:48:14.062Z,99605.64
2019-05-09T10:50:46.077Z,99607.46
2019-05-09T10:53:17.982Z,99609.48
2019-05-09T10:55:48.945Z,99603.49
2019-05-09T10:58:23.420Z,99604.23
2019-05-09T11:00:52.217Z,99605.02
2019-05-09T11:03:22.793Z,99591.25
2019-05-09T11:05:54.188Z,99595.06
2019-05-09T11:08:25.866Z,99598.52
2019-05-09T11:10:58.038Z,99602.38
2019-05-09T11:13:29.003Z,99599.06
2019-05-09T11:15:59.889Z,99588.25
2019-05-09T11:18:30.674Z,99589.64
2019-05-09T11:21:01.288Z,99591.02
2019-05-09T11:23:32.141Z,99594.48
2019-05-09T11:26:02.743Z,99593.54
2019-05-09T11:28:33.473Z,99593.23
2019-05-09T11:31:08.188Z,99592.20
2019-05-09T11:33:39.777Z,99593.58
2019-05-09T11:36:10.932Z,99593.81
2019-05-09T11:38:43.970Z,99591.63
2019-05-09T11:41:18.966Z,99589.30
2019-05-09T11:43:48.682Z,99592.16
2019-05-09T11:46:22.341Z,99593.61
2019-05-09T11:48:53.396Z,99603.33
2019-05-09T11:51:24.719Z,99597.34
2019-05-09T11:53:58.076Z,99598.84
2019-05-09T11:56:28.306Z,99604.53
2019-05-09T11:58:58.842Z,99607.97
2019-05-09T12:01:31.167Z,99603.02
2019-05-09T12:04:01.979Z,99602.86
2019-05-09T12:06:34.001Z,99606.55
2019-05-09T12:09:08.564Z,99604.34
2019-05-09T12:11:44.414Z,99603.22
2019-05-09T12:14:12.618Z,99602.39
2019-05-09T12:16:43.300Z,99603.42
2019-05-09T12:19:14.133Z,99604.55
2019-05-09T12:21:48.143Z,99608.08
2019-05-09T12:24:19.401Z,99605.32
2019-05-09T12:58:09.767Z,99612.83
2019-05-09T13:00:41.139Z,99605.66
2019-05-09T13:03:12.017Z,99606.23
2019-05-09T13:05:42.813Z,99598.84
2019-05-09T13:08:13.344Z,99594.45
2019-05-09T13:10:43.926Z,99603.80
2019-05-09T13:13:18.436Z,99601.05
2019-05-09T13:15:58.113Z,99606.31
2019-05-09T13:18:30.139Z,99608.92
2019-05-09T13:21:00.769Z,99600.41
2019-05-09T13:23:33.409Z,99604.70
2019-05-09T13:26:04.002Z,99604.02
2019-05-09T13:28:34.930Z,99591.06
2019-05-09T13:31:08.261Z,99600.72
2019-05-09T13:33:41.385Z,99598.50
2019-05-09T13:36:11.865Z,99600.91
2019-05-09T13:38:57.862Z,99603.05
2019-05-09T13:41:17.647Z,99602.88
2019-05-09T13:43:57.751Z,99596.52
2019-05-09T13:46:20.260Z,99604.55
2019-05-09T13:49:05.854Z,99597.45
2019-05-09T13:51:23.279Z,99598.47
2019-05-09T13:53:59.083Z,99599.74
2019-05-09T13:56:29.213Z,99597.12
2019-05-09T13:59:00.278Z,99592.39
2019-05-09T14:01:31.256Z,99584.20
2019-05-09T14:04:02.160Z,99585.14
2019-05-09T14:06:33.632Z,99587.63
2019-05-09T14:09:10.287Z,99587.63
2019-05-09T14:11:39.041Z,99582.52
2019-05-09T14:14:09.954Z,99582.49
2019-05-09T14:16:40.804Z,99582.49
2019-05-09T14:19:30.231Z,99586.46
2019-05-09T14:21:47.974Z,99591.78
2019-05-09T14:24:19.161Z,99592.62
2019-05-09T14:26:50.499Z,99559.87
2019-05-09T14:29:21.069Z,99603.12
2019-05-09T14:31:51.982Z,99601.15
2019-05-09T14:34:22.834Z,99601.15
2019-05-09T14:36:53.689Z,99604.80
2019-05-09T14:39:27.571Z,99602.72
2019-05-09T14:41:57.999Z,99603.26
2019-05-09T14:44:28.692Z,99602.23
2019-05-09T14:47:00.945Z,99597.14
2019-05-09T14:49:40.389Z,99599.74
2019-05-09T14:52:04.002Z,99593.52
2019-05-09T14:54:35.354Z,99590.11
2019-05-09T14:57:09.408Z,99587.55
2019-05-09T14:59:39.025Z,99587.94
2019-05-09T15:02:10.034Z,99583.91
2019-05-09T15:04:42.031Z,99591.61
2019-05-09T15:07:12.792Z,99591.61
2019-05-09T15:09:43.589Z,99588.55
2019-05-09T15:12:14.428Z,99588.55
2019-05-09T15:14:45.128Z,99587.48
2019-05-09T15:17:18.288Z,99588.11
2019-05-09T15:19:59.573Z,99580.91
2019-05-09T15:22:21.923Z,99583.45
2019-05-09T15:24:55.737Z,99582.79
2019-05-09T15:27:29.874Z,99582.41
2019-05-09T15:30:00.982Z,99588.00
2019-05-09T15:32:32.547Z,99592.81
2019-05-09T15:35:03.358Z,99598.44
2019-05-09T15:37:38.573Z,99608.81
2019-05-09T15:40:09.491Z,99599.31
2019-05-09T15:42:40.831Z,99599.77
2019-05-09T15:45:12.376Z,99605.13
2019-05-09T15:47:44.072Z,99602.55
2019-05-09T15:50:22.175Z,99594.11
2019-05-09T15:52:48.674Z,99589.91
2019-05-09T15:55:21.038Z,99581.59
2019-05-09T15:57:52.135Z,99584.31
2019-05-09T16:00:23.943Z,99597.78
2019-05-09T16:02:54.771Z,99600.84
2019-05-09T16:05:25.542Z,99596.72
2019-05-09T16:07:58.482Z,99590.27
2019-05-09T16:10:29.058Z,99604.66
2019-05-09T16:13:00.080Z,99598.58
2019-05-09T16:15:30.865Z,99598.02
2019-05-09T16:18:02.452Z,99595.02
2019-05-09T16:20:37.370Z,99597.02
2019-05-09T16:23:08.392Z,99599.21
2019-05-09T16:25:40.863Z,99609.95
2019-05-09T16:28:14.076Z,99618.23
2019-05-09T16:30:45.464Z,99615.33
2019-05-09T16:33:18.371Z,99618.39
2019-05-09T16:35:52.583Z,99617.09
2019-05-09T16:38:22.228Z,99619.13
2019-05-09T16:40:53.248Z,99621.80
2019-05-09T16:43:24.006Z,99617.31
2019-05-09T16:45:58.154Z,99609.53
2019-05-09T16:48:30.705Z,99608.69
2019-05-09T16:51:04.289Z,99613.82
2019-05-09T16:53:34.176Z,99618.54
2019-05-09T16:56:05.006Z,99620.02
2019-05-09T16:58:38.626Z,99626.87
2019-05-09T17:01:10.809Z,99616.62
2019-05-09T17:03:41.750Z,99622.60
2019-05-09T17:06:12.653Z,99619.33
2019-05-09T17:08:43.384Z,99617.38
2019-05-09T17:11:14.035Z,99624.55
2019-05-09T17:13:44.762Z,99624.80
2019-05-09T17:16:17.754Z,99622.62
2019-05-09T17:18:49.267Z,99622.75
2019-05-09T17:21:28.157Z,99618.58
2019-05-09T17:24:01.260Z,99620.06
2019-05-09T17:26:32.857Z,99616.03
2019-05-09T17:29:05.961Z,99620.19
2019-05-09T17:31:38.335Z,99612.13
2019-05-09T17:34:10.511Z,99624.44
2019-05-09T17:36:41.718Z,99626.98
2019-05-09T17:39:13.330Z,99628.94
2019-05-09T17:41:44.301Z,99635.37
2019-05-09T17:44:15.172Z,99635.27
2019-05-09T17:46:48.097Z,99638.05
2019-05-09T17:49:19.980Z,99631.00
2019-05-09T17:51:50.811Z,99628.18
2019-05-09T17:54:21.498Z,99631.00
2019-05-09T17:56:52.741Z,99628.32
2019-05-09T17:59:23.860Z,99627.33
2019-05-09T18:01:54.634Z,99632.20
2019-05-09T18:04:28.772Z,99628.89
2019-05-09T18:07:02.502Z,99631.70
2019-05-09T18:09:33.564Z,99635.97
2019-05-09T18:12:04.682Z,99632.44
2019-05-09T18:14:38.319Z,99635.83
2019-05-09T18:17:09.446Z,99635.09
2019-05-09T18:19:41.965Z,99633.63
2019-05-09T18:22:12.927Z,99632.09
2019-05-09T18:24:45.044Z,99632.80
2019-05-09T18:27:17.967Z,99623.27
2019-05-09T18:29:49.702Z,99627.53
2019-05-09T18:32:31.944Z,99627.49
2019-05-09T18:35:20.219Z,99631.36
2019-05-09T18:37:51.657Z,99634.64
2019-05-09T18:40:24.088Z,99635.83
2019-05-09T18:42:54.988Z,99630.34
2019-05-09T18:45:29.258Z,99633.11
2019-05-09T18:47:59.949Z,99630.19
2019-05-09T18:50:31.928Z,99631.12
2019-05-09T18:53:03.049Z,99632.32
2019-05-09T18:55:34.006Z,99630.45
2019-05-09T18:58:05.398Z,99640.89
2019-05-09T19:00:37.630Z,99639.85
2019-05-09T19:03:09.866Z,99641.92
2019-05-09T19:05:41.191Z,99639.20
2019-05-09T19:08:12.054Z,99633.94
2019-05-09T19:10:43.974Z,99640.66
2019-05-09T19:13:15.128Z,99644.66
2019-05-09T19:15:53.640Z,99636.42
2019-05-09T19:18:26.055Z,99641.45
2019-05-09T19:20:59.659Z,99644.36
2019-05-09T19:23:30.639Z,99643.92
2019-05-09T19:26:02.998Z,99647.36
2019-05-09T19:28:34.101Z,99649.22
2019-05-09T19:31:05.586Z,99646.35
2019-05-09T19:33:36.455Z,99650.69
2019-05-09T19:36:07.645Z,99658.21
2019-05-09T19:38:39.053Z,99661.83
2019-05-09T19:41:10.264Z,99670.33
2019-05-09T19:43:42.006Z,99665.22
2019-05-09T19:46:12.936Z,99675.20
2019-05-09T19:48:43.724Z,99672.05
2019-05-09T19:51:14.729Z,99675.68
2019-05-09T19:53:45.727Z,99668.77
2019-05-09T19:56:17.096Z,99675.97
2019-05-09T19:58:47.901Z,99672.11
2019-05-09T20:01:18.967Z,99675.19
2019-05-09T20:03:50.954Z,99672.94
2019-05-09T20:06:21.810Z,99677.25
2019-05-09T20:08:53.417Z,99676.49
2019-05-09T20:11:40.824Z,99678.63
2019-05-09T20:14:13.433Z,99671.42
2019-05-09T20:16:45.754Z,99676.57
2019-05-09T20:19:16.916Z,99676.66
2019-05-09T20:21:49.229Z,99677.14
2019-05-09T20:24:21.660Z,99670.88
2019-05-09T20:26:52.520Z,99674.42
2019-05-09T20:29:23.322Z,99676.45
2019-05-09T20:31:54.017Z,99675.81
2019-05-09T20:34:25.131Z,99673.44
2019-05-09T20:36:56.789Z,99671.25
2019-05-09T20:39:30.747Z,99669.16
2019-05-09T20:42:00.987Z,99678.87
2019-05-09T20:44:32.071Z,99671.83
2019-05-09T20:47:03.768Z,99681.64
2019-05-09T20:49:34.787Z,99688.67
2019-05-09T20:52:05.614Z,99687.05
2019-05-09T20:54:37.789Z,99683.73
2019-05-09T20:57:08.851Z,99685.44
2019-05-09T20:59:41.690Z,99687.53
2019-05-09T21:02:13.218Z,99693.30
2019-05-09T21:04:45.052Z,99695.92
2019-05-09T21:07:16.327Z,99699.44
2019-05-09T21:09:47.738Z,99700.20
2019-05-09T21:12:18.738Z,99699.63
2019-05-09T21:14:49.697Z,99702.46
2019-05-09T21:17:20.938Z,99703.36
2019-05-09T21:19:52.241Z,99707.14
2019-05-09T21:22:23.293Z,99714.75
2019-05-09T21:24:54.228Z,99705.80
2019-05-09T21:27:24.956Z,99708.45
2019-05-09T21:29:56.132Z,99704.41
2019-05-09T21:32:27.031Z,99706.41
2019-05-09T21:34:57.873Z,99712.28
2019-05-09T21:37:28.428Z,99707.10
2019-05-09T21:39:59.084Z,99713.27
2019-05-09T21:42:31.302Z,99712.23
2019-05-09T21:45:01.995Z,99709.94
2019-05-09T21:47:33.593Z,99708.11
2019-05-09T21:50:06.357Z,99711.80
2019-05-09T21:52:37.022Z,99710.16
2019-05-09T21:55:08.230Z,99718.17
2019-05-09T21:57:39.826Z,99723.61
2019-05-09T22:00:15.939Z,99719.00
2019-05-09T22:02:48.386Z,99725.41
2019-05-09T22:05:20.175Z,99727.63
2019-05-09T22:07:50.824Z,99727.08
2019-05-09T22:10:22.543Z,99724.79
2019-05-09T22:12:53.350Z,99729.95
2019-05-09T22:15:24.144Z,99729.95
2019-05-09T22:17:55.364Z,99722.31
2019-05-09T22:20:26.269Z,99737.00
2019-05-09T22:22:57.447Z,99735.75
2019-05-09T22:25:28.214Z,99735.08
2019-05-09T22:27:59.063Z,99736.69
2019-05-09T22:30:30.130Z,99737.34
2019-05-09T22:33:01.107Z,99732.50
2019-05-09T22:35:31.758Z,99729.79
2019-05-09T22:38:02.844Z,99728.92
2019-05-09T22:40:33.566Z,99733.75
2019-05-09T22:43:04.942Z,99729.47
2019-05-09T22:45:35.990Z,99734.48
2019-05-09T22:48:07.222Z,99734.30
2019-05-09T22:50:38.014Z,99734.45
2019-05-09T22:53:09.320Z,99728.19
2019-05-09T22:55:40.546Z,99734.35
2019-05-09T22:58:11.117Z,99736.63
2019-05-09T23:00:41.957Z,99735.79
2019-05-09T23:03:13.919Z,99732.91
2019-05-09T23:05:46.127Z,99727.84
2019-05-09T23:08:17.214Z,99727.37
2019-05-09T23:10:48.048Z,99725.19
2019-05-09T23:13:18.959Z,99727.44
2019-05-09T23:15:49.942Z,99732.99
2019-05-09T23:18:20.783Z,99726.75
2019-05-09T23:20:53.309Z,99725.05
2019-05-09T23:23:29.136Z,99719.13
2019-05-09T23:26:00.518Z,99730.14
2019-05-09T23:28:31.426Z,99722.48
2019-05-09T23:31:04.377Z,99722.72
2019-05-09T23:33:36.869Z,99726.70
2019-05-09T23:36:07.656Z,99725.92
2019-05-09T23:38:56.289Z,99723.52
2019-05-09T23:41:27.160Z,99719.13
2019-05-09T23:43:57.996Z,99721.89
2019-05-09T23:46:28.691Z,99720.46
2019-05-09T23:48:59.403Z,99726.17
2019-05-09T23:51:49.195Z,99719.89
2019-05-09T23:54:46.729Z,99720.19
2019-05-09T23:57:31.263Z,99722.16
